Time;durP1;ratioP1;P1;durP2;ratioP2;P2;SDS_P1;SDS_P2;PMS_P1;PMS_P2;Temp;Humidity;BMP_temperature;BMP_pressure;BME280_temperature;BME280_humidity;BME280_pressure;Samples;Min_cycle;Max_cycle;Signal;HPM_P1;HPM_P2
2022/12/30 00:00:22;;;;;;;5.93;2.50;;;9.10;99.90;;;;;;5051010;28;20529;-74
2022/12/30 00:03:07;;;;;;;5.23;2.00;;;8.90;99.90;;;;;;5041347;28;20863;-73
2022/12/30 00:05:54;;;;;;;18.98;2.40;;;9.00;99.90;;;;;;5045848;28;20450;-72
2022/12/30 00:08:49;;;;;;;9.40;2.17;;;9.00;99.90;;;;;;5048212;28;20236;-73
2022/12/30 00:11:35;;;;;;;5.90;2.30;;;8.90;99.90;;;;;;5047527;28;20960;-72
2022/12/30 00:35:50;;;;;;;6.93;2.10;;;9.40;99.90;;;;;;5051526;28;20494;-74
2022/12/30 00:38:37;;;;;;;11.20;2.70;;;9.50;99.90;;;;;;5048694;28;20470;-74
2022/12/30 00:44:26;;;;;;;8.67;2.20;;;9.60;99.90;;;;;;5050018;28;20439;-74
2022/12/30 00:47:13;;;;;;;8.13;2.27;;;9.60;99.90;;;;;;5051709;28;20963;-74
2022/12/30 00:56:10;;;;;;;9.50;2.77;;;9.50;99.90;;;;;;5050551;28;20498;-73
2022/12/30 00:58:56;;;;;;;7.00;2.20;;;9.50;99.90;;;;;;5051105;28;20550;-73
2022/12/30 01:01:41;;;;;;;7.53;2.50;;;9.50;99.90;;;;;;5042543;28;20481;-72
2022/12/30 01:04:28;;;;;;;7.03;2.47;;;9.40;99.90;;;;;;5051679;28;20528;-72
2022/12/30 01:07:14;;;;;;;13.00;2.20;;;9.40;99.90;;;;;;5047824;28;20443;-73
2022/12/30 01:10:00;;;;;;;7.60;2.73;;;9.40;99.90;;;;;;5064165;23;20478;-77
2022/12/30 01:12:47;;;;;;;16.27;3.17;;;9.40;99.90;;;;;;5050083;28;20466;-76
2022/12/30 01:15:32;;;;;;;5.33;1.83;;;9.50;99.90;;;;;;5055514;28;20487;-78
2022/12/30 01:18:18;;;;;;;7.03;2.00;;;9.40;99.90;;;;;;5038808;28;20470;-77
2022/12/30 01:21:05;;;;;;;6.83;2.30;;;9.20;99.90;;;;;;5046553;28;20440;-76
2022/12/30 01:23:51;;;;;;;10.30;2.30;;;9.20;99.90;;;;;;5053964;28;20446;-75
2022/12/30 01:26:36;;;;;;;8.23;2.70;;;9.30;99.90;;;;;;5048588;28;20952;-77
2022/12/30 01:29:28;;;;;;;9.40;2.50;;;9.30;99.90;;;;;;5055030;28;20656;-76
2022/12/30 01:32:15;;;;;;;8.30;2.17;;;9.20;99.90;;;;;;5050712;28;20451;-77
2022/12/30 01:35:01;;;;;;;8.30;3.60;;;9.30;99.90;;;;;;5047077;28;20459;-76
2022/12/30 01:37:47;;;;;;;8.07;2.30;;;9.30;99.90;;;;;;5050348;28;20444;-76
2022/12/30 01:40:39;;;;;;;11.33;2.40;;;9.20;99.90;;;;;;5044624;28;20440;-77
2022/12/30 01:43:48;;;;;;;7.50;2.87;;;9.30;99.90;;;;;;5050816;28;20452;-77
2022/12/30 01:46:35;;;;;;;7.57;2.57;;;9.20;99.90;;;;;;5046234;28;20486;-77
2022/12/30 01:49:21;;;;;;;10.93;2.17;;;9.20;99.90;;;;;;5048036;28;20467;-77
2022/12/30 01:52:07;;;;;;;10.30;2.03;;;9.00;99.90;;;;;;5044209;28;21063;-77
2022/12/30 01:55:01;;;;;;;18.33;3.23;;;9.00;99.90;;;;;;5053206;28;20589;-77
2022/12/30 01:57:50;;;;;;;7.30;2.10;;;8.80;99.90;;;;;;5055337;28;20427;-77
2022/12/30 02:00:35;;;;;;;4.93;1.70;;;8.70;99.90;;;;;;5043088;28;20925;-76
2022/12/30 02:03:24;;;;;;;7.77;2.00;;;8.60;99.90;;;;;;5049640;28;20440;-77
2022/12/30 02:06:09;;;;;;;12.60;2.40;;;8.50;99.90;;;;;;5055020;28;20435;-77
2022/12/30 02:08:55;;;;;;;7.33;2.20;;;8.40;99.90;;;;;;5056548;28;20477;-76
2022/12/30 02:11:41;;;;;;;8.40;2.20;;;8.30;99.90;;;;;;5054789;28;20961;-77
2022/12/30 02:14:29;;;;;;;13.90;2.17;;;8.20;99.90;;;;;;5054432;28;20462;-77
2022/12/30 02:17:25;;;;;;;5.13;2.70;;;8.10;99.90;;;;;;5050897;28;20478;-77
2022/12/30 02:20:57;;;;;;;6.93;2.50;;;7.80;99.90;;;;;;5047099;28;20451;-77
2022/12/30 02:24:09;;;;;;;8.90;2.92;;;7.70;99.90;;;;;;5051683;28;20929;-77
2022/12/30 02:27:16;;;;;;;6.73;2.30;;;7.70;99.90;;;;;;5056369;28;20204;-77
2022/12/30 02:30:19;;;;;;;5.53;1.73;;;7.80;99.90;;;;;;5049521;28;21035;-77
2022/12/30 02:33:22;;;;;;;14.55;2.85;;;7.70;99.90;;;;;;5047691;28;20900;-77
2022/12/30 02:36:15;;;;;;;8.10;2.50;;;7.70;99.90;;;;;;5056582;28;20294;-77
2022/12/30 02:39:06;;;;;;;9.53;2.77;;;7.80;99.90;;;;;;5050791;28;20228;-77
2022/12/30 02:45:09;;;;;;;11.07;2.10;;;7.90;99.90;;;;;;5054656;28;21073;-77
2022/12/30 02:47:59;;;;;;;8.70;2.13;;;8.00;99.90;;;;;;5056102;28;20469;-77
2022/12/30 02:53:53;;;;;;;8.07;2.33;;;8.10;99.90;;;;;;5059109;28;20492;-77
2022/12/30 02:56:48;;;;;;;9.10;2.23;;;8.30;99.90;;;;;;5056124;28;20483;-77
2022/12/30 03:05:58;;;;;;;7.57;2.72;;;8.50;99.90;;;;;;5059507;28;20443;-77
2022/12/30 03:08:52;;;;;;;9.07;2.03;;;8.40;99.90;;;;;;5054980;28;20314;-77
2022/12/30 03:11:45;;;;;;;6.43;1.83;;;8.40;99.90;;;;;;5052411;28;20494;-77
2022/12/30 03:14:36;;;;;;;7.80;1.93;;;8.40;99.90;;;;;;5049912;28;20491;-77
2022/12/30 03:17:27;;;;;;;5.20;3.00;;;8.50;99.90;;;;;;5050771;28;20506;-77
2022/12/30 03:20:15;;;;;;;12.43;2.30;;;8.40;99.90;;;;;;5048203;28;20586;-77
2022/12/30 03:29:13;;;;;;;7.53;2.67;;;8.30;99.90;;;;;;5042475;28;20509;-77
2022/12/30 03:31:59;;;;;;;5.03;2.25;;;8.20;99.90;;;;;;5055786;28;20204;-77
2022/12/30 03:34:46;;;;;;;10.05;2.10;;;8.20;99.90;;;;;;5050274;28;20216;-77
2022/12/30 03:37:34;;;;;;;5.82;1.80;;;8.30;99.90;;;;;;5046918;28;20239;-76
2022/12/30 03:40:26;;;;;;;11.20;2.33;;;8.40;99.90;;;;;;5049437;28;20248;-76
2022/12/30 03:43:11;;;;;;;11.00;2.83;;;8.50;99.90;;;;;;5055657;28;20439;-77
2022/12/30 03:45:57;;;;;;;18.03;2.30;;;8.60;99.90;;;;;;5051453;28;20518;-76
2022/12/30 03:48:43;;;;;;;15.70;2.77;;;8.60;99.90;;;;;;5048135;28;20818;-77
2022/12/30 03:51:28;;;;;;;8.73;2.13;;;8.60;99.90;;;;;;5050706;28;20443;-76
2022/12/30 03:54:14;;;;;;;8.93;2.37;;;8.70;99.90;;;;;;5050999;28;20447;-77
2022/12/30 03:57:01;;;;;;;8.63;2.33;;;8.80;99.90;;;;;;5052790;28;20541;-77
2022/12/30 03:59:47;;;;;;;10.80;2.30;;;8.80;99.90;;;;;;5048304;28;20470;-77
2022/12/30 04:02:32;;;;;;;7.00;2.50;;;8.80;99.90;;;;;;5053740;28;20439;-77
2022/12/30 04:05:18;;;;;;;7.53;2.30;;;8.90;99.90;;;;;;5049422;28;20756;-77
2022/12/30 04:08:03;;;;;;;7.37;2.23;;;8.90;99.90;;;;;;5050064;28;20436;-76
2022/12/30 04:10:49;;;;;;;11.47;3.07;;;9.00;99.90;;;;;;5057560;28;21019;-76
2022/12/30 04:13:36;;;;;;;6.87;2.60;;;8.90;99.90;;;;;;5057424;28;20839;-77
2022/12/30 04:16:22;;;;;;;8.00;2.10;;;8.90;99.90;;;;;;5051496;28;20475;-76
2022/12/30 04:19:08;;;;;;;3.63;1.67;;;8.90;99.90;;;;;;5042682;28;20486;-77
2022/12/30 04:21:53;;;;;;;13.77;2.53;;;8.80;99.90;;;;;;5052221;28;20465;-76
2022/12/30 04:24:39;;;;;;;5.03;2.00;;;8.70;99.90;;;;;;5049233;28;20442;-77
2022/12/30 04:27:25;;;;;;;10.07;2.87;;;8.50;99.90;;;;;;5057137;28;20447;-76
2022/12/30 04:30:13;;;;;;;3.35;2.00;;;8.50;99.90;;;;;;5052390;28;20468;-77
2022/12/30 04:32:59;;;;;;;14.60;2.17;;;8.40;99.90;;;;;;5051370;28;20205;-77
2022/12/30 04:35:45;;;;;;;7.68;1.58;;;8.30;99.90;;;;;;5052451;28;20919;-77
2022/12/30 04:38:30;;;;;;;9.57;2.50;;;8.20;99.90;;;;;;5046190;28;20225;-76
2022/12/30 04:41:17;;;;;;;6.27;2.13;;;8.10;99.90;;;;;;5062322;28;20592;-76
2022/12/30 04:44:04;;;;;;;11.10;2.57;;;8.00;99.90;;;;;;5055153;28;20857;-76
2022/12/30 04:46:51;;;;;;;8.33;2.00;;;8.00;99.90;;;;;;5049668;28;20441;-77
2022/12/30 04:49:37;;;;;;;5.93;1.80;;;7.90;99.90;;;;;;5047479;28;20475;-77
2022/12/30 04:52:22;;;;;;;7.68;2.47;;;7.80;99.90;;;;;;5053699;28;20434;-76
2022/12/30 04:55:09;;;;;;;9.00;2.60;;;7.60;99.90;;;;;;5052531;28;20212;-77
2022/12/30 04:57:55;;;;;;;6.85;2.10;;;7.50;99.90;;;;;;5040916;28;20825;-77
2022/12/30 05:00:40;;;;;;;7.03;2.13;;;7.40;99.90;;;;;;5050655;28;20347;-77
2022/12/30 05:03:27;;;;;;;9.43;2.33;;;7.30;99.90;;;;;;5047169;28;20255;-76
2022/12/30 05:06:13;;;;;;;10.23;1.80;;;7.30;99.90;;;;;;5049136;28;20212;-76
2022/12/30 05:08:58;;;;;;;6.30;1.63;;;7.30;99.90;;;;;;5048934;28;20548;-77
2022/12/30 05:11:44;;;;;;;8.63;2.60;;;7.20;99.90;;;;;;5050307;28;20463;-77
2022/12/30 05:14:30;;;;;;;7.33;2.40;;;7.20;99.90;;;;;;5052052;28;20959;-76
2022/12/30 05:17:15;;;;;;;9.23;2.90;;;7.10;99.90;;;;;;5043372;28;20617;-77
2022/12/30 05:20:03;;;;;;;8.97;2.93;;;7.10;99.90;;;;;;5053667;28;20486;-77
2022/12/30 05:22:48;;;;;;;7.57;1.63;;;7.00;99.90;;;;;;5055863;28;20447;-77
2022/12/30 05:28:38;;;;;;;8.10;2.83;;;7.10;99.90;;;;;;5048478;28;20825;-76
2022/12/30 05:31:24;;;;;;;7.40;2.08;;;7.00;99.90;;;;;;5045630;28;20586;-77
2022/12/30 05:34:09;;;;;;;6.97;2.37;;;7.00;99.90;;;;;;5058987;28;20208;-77
2022/12/30 05:36:56;;;;;;;14.87;3.57;;;7.00;99.90;;;;;;5046380;28;20468;-77
2022/12/30 05:39:42;;;;;;;10.70;1.85;;;7.00;99.90;;;;;;5052672;28;20467;-77
2022/12/30 05:42:27;;;;;;;8.53;2.10;;;6.90;99.90;;;;;;5053361;28;20588;-76
2022/12/30 05:45:13;;;;;;;7.77;2.20;;;6.90;99.90;;;;;;5059789;28;20501;-76
2022/12/30 05:47:59;;;;;;;16.43;2.30;;;6.80;99.90;;;;;;5043241;28;20446;-76
2022/12/30 05:50:48;;;;;;;4.67;1.93;;;6.90;99.90;;;;;;5050520;28;20454;-76
2022/12/30 05:53:34;;;;;;;5.15;2.28;;;6.90;99.90;;;;;;5054764;28;20582;-76
2022/12/30 05:56:20;;;;;;;12.10;1.88;;;6.80;99.90;;;;;;5044629;28;20283;-77
2022/12/30 05:59:06;;;;;;;4.45;1.50;;;6.80;99.90;;;;;;5056323;28;20239;-77
2022/12/30 06:01:51;;;;;;;4.57;2.00;;;6.90;99.90;;;;;;5062580;28;20196;-76
2022/12/30 06:04:37;;;;;;;5.97;2.07;;;7.00;99.90;;;;;;5056051;28;20659;-77
2022/12/30 06:07:23;;;;;;;11.20;2.20;;;7.00;99.90;;;;;;5047476;28;20444;-76
2022/12/30 06:10:10;;;;;;;3.47;1.83;;;6.90;99.90;;;;;;5048118;28;20475;-77
2022/12/30 06:12:55;;;;;;;9.23;1.90;;;7.00;99.90;;;;;;5055250;28;20537;-77
2022/12/30 06:15:41;;;;;;;7.77;2.43;;;7.00;99.90;;;;;;5051784;28;20205;-77
2022/12/30 06:18:26;;;;;;;11.35;2.78;;;7.00;99.90;;;;;;5047301;28;21079;-76
2022/12/30 06:21:12;;;;;;;5.45;2.05;;;7.10;99.90;;;;;;5053997;28;20204;-77
2022/12/30 06:23:58;;;;;;;7.00;2.90;;;7.20;99.90;;;;;;5057135;28;20208;-76
2022/12/30 06:26:45;;;;;;;14.10;3.20;;;7.20;99.90;;;;;;5050564;28;20205;-76
2022/12/30 06:29:30;;;;;;;7.35;2.60;;;7.10;99.90;;;;;;5049458;28;20232;-77
2022/12/30 06:32:16;;;;;;;4.15;2.50;;;7.10;99.90;;;;;;5052420;28;20201;-77
2022/12/30 06:35:02;;;;;;;7.93;2.40;;;7.00;99.90;;;;;;5050196;28;20205;-76
2022/12/30 06:37:48;;;;;;;4.03;2.00;;;7.00;99.90;;;;;;5051631;28;20616;-76
2022/12/30 06:40:34;;;;;;;3.50;2.03;;;6.90;99.90;;;;;;5059092;28;20224;-77
2022/12/30 06:43:21;;;;;;;12.07;2.87;;;6.90;99.90;;;;;;5057020;28;20208;-77
2022/12/30 06:46:06;;;;;;;6.72;2.10;;;6.70;99.90;;;;;;5055408;28;21719;-77
2022/12/30 06:48:52;;;;;;;6.00;2.70;;;6.70;99.90;;;;;;5053887;28;20586;-77
2022/12/30 06:51:38;;;;;;;6.72;2.30;;;6.60;99.90;;;;;;5056737;28;20259;-77
2022/12/30 06:54:23;;;;;;;8.40;2.60;;;6.60;99.90;;;;;;5052809;28;20208;-77
2022/12/30 06:57:09;;;;;;;6.25;2.40;;;6.50;99.90;;;;;;5047171;28;20665;-76
2022/12/30 06:59:56;;;;;;;4.85;2.20;;;6.30;99.90;;;;;;5051166;28;20224;-77
2022/12/30 07:02:42;;;;;;;5.50;2.20;;;6.30;99.90;;;;;;5052496;28;20224;-76
2022/12/30 07:05:27;;;;;;;9.13;2.70;;;6.10;99.90;;;;;;5048567;28;20319;-75
2022/12/30 07:10:47;;;;;;;4.35;2.45;;;6.10;99.90;;;;;;5053301;28;20224;-73
2022/12/30 07:13:33;;;;;;;10.03;2.53;;;6.00;99.90;;;;;;5049779;28;20227;-73
2022/12/30 07:16:20;;;;;;;4.57;2.03;;;6.00;99.90;;;;;;5044359;28;20512;-73
2022/12/30 07:19:05;;;;;;;5.17;2.20;;;6.00;99.90;;;;;;5050859;28;20223;-72
2022/12/30 07:21:51;;;;;;;13.27;2.92;;;6.00;99.90;;;;;;5049767;28;20459;-73
2022/12/30 07:24:36;;;;;;;7.80;2.10;;;6.00;99.90;;;;;;5047793;28;20210;-73
2022/12/30 07:27:22;;;;;;;7.85;2.38;;;6.10;99.90;;;;;;5049860;28;20384;-73
2022/12/30 07:30:09;;;;;;;8.18;2.13;;;6.10;99.90;;;;;;5046811;28;20587;-73
2022/12/30 07:32:56;;;;;;;7.65;2.42;;;6.30;99.90;;;;;;5041955;28;20604;-73
2022/12/30 07:35:42;;;;;;;9.63;3.10;;;6.30;99.90;;;;;;5044386;28;20696;-73
2022/12/30 07:38:27;;;;;;;5.72;2.13;;;6.40;99.90;;;;;;5050110;28;20221;-72
2022/12/30 07:41:13;;;;;;;11.32;2.20;;;6.40;99.90;;;;;;5041231;28;20205;-73
2022/12/30 07:43:58;;;;;;;9.07;2.33;;;6.50;99.90;;;;;;5041737;28;20219;-72
2022/12/30 07:46:44;;;;;;;6.47;2.80;;;6.60;99.90;;;;;;5043830;28;20440;-72
2022/12/30 07:49:31;;;;;;;4.45;2.88;;;6.70;99.90;;;;;;5044555;28;20459;-73
2022/12/30 07:52:17;;;;;;;9.10;2.53;;;6.80;99.90;;;;;;5049363;28;20213;-73
2022/12/30 07:55:03;;;;;;;4.83;2.17;;;6.90;99.90;;;;;;5042254;28;20869;-72
2022/12/30 07:57:49;;;;;;;8.30;3.43;;;7.10;99.90;;;;;;5048699;28;20633;-72
2022/12/30 08:00:35;;;;;;;6.65;2.20;;;7.20;99.90;;;;;;5047028;28;20467;-71
2022/12/30 08:03:21;;;;;;;6.60;2.40;;;7.30;99.90;;;;;;5042079;28;20209;-72
2022/12/30 08:06:10;;;;;;;5.40;2.53;;;7.50;99.90;;;;;;5045532;28;20459;-73
2022/12/30 08:08:55;;;;;;;5.22;2.30;;;7.50;99.90;;;;;;5050095;28;20475;-73
2022/12/30 08:11:41;;;;;;;6.23;2.77;;;7.70;99.90;;;;;;5049392;28;20227;-73
2022/12/30 08:14:27;;;;;;;6.50;2.03;;;7.80;99.90;;;;;;5052065;28;20440;-73
2022/12/30 08:17:13;;;;;;;2.20;1.40;;;7.70;99.90;;;;;;5047976;28;20431;-73
2022/12/30 08:19:59;;;;;;;3.20;1.37;;;7.80;99.90;;;;;;5051138;28;20541;-72
2022/12/30 08:22:46;;;;;;;4.57;1.60;;;8.00;99.90;;;;;;5045668;28;20591;-73
2022/12/30 08:25:31;;;;;;;3.97;2.60;;;8.10;99.90;;;;;;5037029;28;20673;-73
2022/12/30 08:28:17;;;;;;;6.43;3.80;;;8.20;99.90;;;;;;5047946;28;21056;-73
2022/12/30 08:31:06;;;;;;;9.27;3.40;;;8.30;99.90;;;;;;5048227;28;20485;-73
2022/12/30 08:33:52;;;;;;;50.78;22.75;;;8.40;99.90;;;;;;5045082;28;21006;-74
2022/12/30 08:36:37;;;;;;;18.70;8.20;;;8.50;99.90;;;;;;5042021;28;20209;-73
2022/12/30 08:39:25;;;;;;;15.20;8.13;;;8.50;99.90;;;;;;5037633;28;20835;-74
2022/12/30 08:42:10;;;;;;;2.73;1.80;;;8.60;99.90;;;;;;5043795;28;20568;-72
2022/12/30 08:44:56;;;;;;;3.60;1.70;;;8.70;99.90;;;;;;5042420;28;20482;-72
2022/12/30 08:47:42;;;;;;;3.67;2.20;;;8.80;99.90;;;;;;5045017;28;20986;-74
2022/12/30 08:50:27;;;;;;;7.15;2.13;;;8.90;99.90;;;;;;5046269;28;20479;-72
2022/12/30 08:53:13;;;;;;;2.70;1.63;;;8.90;99.90;;;;;;5047037;28;20780;-73
2022/12/30 08:56:02;;;;;;;4.03;1.90;;;9.00;99.90;;;;;;5044288;28;20614;-73
2022/12/30 08:58:48;;;;;;;3.70;1.53;;;9.00;99.90;;;;;;5052329;28;20486;-74
2022/12/30 09:01:38;;;;;;;2.30;1.20;;;9.00;99.90;;;;;;5045810;28;20761;-73
2022/12/30 09:04:24;;;;;;;5.37;1.37;;;9.00;99.90;;;;;;5051882;28;20447;-73
2022/12/30 09:07:09;;;;;;;4.60;0.90;;;9.00;99.90;;;;;;5045524;28;20550;-73
2022/12/30 09:09:55;;;;;;;5.73;1.90;;;9.10;99.90;;;;;;5036228;28;20491;-73
2022/12/30 09:12:42;;;;;;;4.20;1.10;;;9.00;99.90;;;;;;5048616;28;21018;-74
2022/12/30 09:15:28;;;;;;;4.67;2.53;;;9.10;99.90;;;;;;5044007;28;20436;-74
2022/12/30 09:18:13;;;;;;;3.13;1.40;;;9.10;99.90;;;;;;5041324;28;21053;-74
2022/12/30 09:20:59;;;;;;;3.90;1.30;;;9.10;99.90;;;;;;5042237;28;20506;-75
2022/12/30 09:23:45;;;;;;;3.83;1.57;;;9.20;99.90;;;;;;5044776;28;20482;-74
2022/12/30 09:26:31;;;;;;;2.23;1.57;;;9.30;99.90;;;;;;5047007;28;20443;-75
2022/12/30 09:29:18;;;;;;;2.47;1.00;;;9.40;99.90;;;;;;5051526;28;20521;-74
2022/12/30 09:32:04;;;;;;;2.53;0.80;;;9.40;99.90;;;;;;5045070;28;20420;-75
2022/12/30 09:34:50;;;;;;;2.97;0.70;;;9.50;99.90;;;;;;5050407;28;20443;-74
2022/12/30 09:37:35;;;;;;;2.10;1.07;;;9.50;99.90;;;;;;5040593;28;20542;-74
2022/12/30 09:40:28;;;;;;;2.73;0.90;;;9.60;99.90;;;;;;5045494;28;20497;-74
2022/12/30 09:43:21;;;;;;;2.90;1.00;;;9.50;99.90;;;;;;5034667;28;21127;-74
2022/12/30 09:46:26;;;;;;;3.10;1.20;;;9.60;99.90;;;;;;5044172;28;20466;-74
2022/12/30 09:49:22;;;;;;;4.67;2.07;;;9.70;99.90;;;;;;5044521;28;20451;-74
2022/12/30 09:52:17;;;;;;;3.33;0.93;;;9.60;99.90;;;;;;5040719;28;20797;-74
2022/12/30 09:55:10;;;;;;;2.97;0.90;;;9.60;99.90;;;;;;5042677;28;20443;-74
2022/12/30 09:57:59;;;;;;;3.03;1.00;;;9.60;99.90;;;;;;5042624;28;20468;-74
2022/12/30 10:00:47;;;;;;;5.87;1.40;;;9.70;99.90;;;;;;5050711;28;21002;-74
2022/12/30 10:03:34;;;;;;;4.03;0.90;;;9.70;99.90;;;;;;5039796;28;20443;-74
2022/12/30 10:06:27;;;;;;;3.73;1.00;;;9.80;99.90;;;;;;5045629;28;20456;-74
2022/12/30 10:09:38;;;;;;;3.50;0.90;;;9.80;99.90;;;;;;5042905;28;20535;-74
2022/12/30 10:12:45;;;;;;;3.80;1.73;;;9.90;99.90;;;;;;5042100;28;20424;-74
2022/12/30 10:15:44;;;;;;;5.67;2.37;;;10.00;99.90;;;;;;5043306;28;20482;-74
2022/12/30 10:19:14;;;;;;;3.63;1.43;;;10.00;99.90;;;;;;5043876;28;20542;-74
2022/12/30 10:22:07;;;;;;;3.57;1.30;;;10.00;99.90;;;;;;5040250;28;20501;-74
2022/12/30 10:25:10;;;;;;;4.70;1.27;;;10.10;99.90;;;;;;5045289;28;20944;-75
2022/12/30 10:27:57;;;;;;;2.53;1.10;;;10.10;99.90;;;;;;5045504;28;20570;-74
2022/12/30 10:30:48;;;;;;;4.40;1.33;;;10.20;99.90;;;;;;5046738;28;20436;-74
2022/12/30 10:33:35;;;;;;;7.40;1.13;;;10.30;99.90;;;;;;5043065;28;20515;-74
2022/12/30 10:36:25;;;;;;;2.80;1.33;;;10.40;99.90;;;;;;5043772;28;21099;-74
2022/12/30 10:39:16;;;;;;;3.97;1.63;;;10.50;99.90;;;;;;5040988;28;20645;-74
2022/12/30 10:42:27;;;;;;;2.70;1.40;;;10.50;99.90;;;;;;5045863;28;20940;-74
2022/12/30 10:45:37;;;;;;;2.27;1.00;;;10.60;99.90;;;;;;5043212;28;20915;-75
2022/12/30 10:48:37;;;;;;;7.10;1.43;;;10.70;99.90;;;;;;5042279;28;20479;-74
2022/12/30 10:51:24;;;;;;;4.70;1.23;;;10.80;99.90;;;;;;5044946;28;20529;-74
2022/12/30 10:54:10;;;;;;;14.37;1.40;;;10.90;99.90;;;;;;5042732;28;20511;-74
2022/12/30 10:56:57;;;;;;;3.97;1.40;;;11.10;99.90;;;;;;5035835;28;20451;-74
2022/12/30 10:59:44;;;;;;;4.40;1.17;;;11.50;99.90;;;;;;5037381;28;20957;-74
2022/12/30 11:02:36;;;;;;;3.77;1.00;;;11.70;99.90;;;;;;5041942;28;20425;-74
2022/12/30 11:05:34;;;;;;;3.80;1.20;;;11.60;99.90;;;;;;5041964;28;20467;-74
2022/12/30 11:08:26;;;;;;;6.67;1.00;;;11.60;99.90;;;;;;5045304;28;20424;-74
2022/12/30 11:11:12;;;;;;;3.43;1.20;;;11.80;99.90;;;;;;5038723;28;20428;-74
2022/12/30 11:17:10;;;;;;;1.67;0.90;;;11.80;99.90;;;;;;5045286;28;20543;-75
2022/12/30 11:20:00;;;;;;;2.10;1.00;;;11.80;99.90;;;;;;5041690;28;20568;-74
2022/12/30 11:22:46;;;;;;;5.00;1.10;;;11.60;99.90;;;;;;5044500;28;20908;-74
2022/12/30 11:25:34;;;;;;;4.87;1.40;;;11.40;99.90;;;;;;5041859;28;20498;-74
2022/12/30 11:28:23;;;;;;;2.93;1.30;;;11.40;99.90;;;;;;5041698;28;20520;-74
2022/12/30 11:31:13;;;;;;;4.03;1.20;;;11.40;99.90;;;;;;5047818;28;20416;-74
2022/12/30 11:34:01;;;;;;;4.40;1.30;;;11.30;99.90;;;;;;5037516;28;20568;-74
2022/12/30 11:36:47;;;;;;;1.90;0.90;;;11.10;99.90;;;;;;5041858;28;20435;-74
2022/12/30 11:39:34;;;;;;;4.20;1.60;;;11.00;99.90;;;;;;5040129;28;20487;-74
2022/12/30 11:42:30;;;;;;;4.60;1.50;;;11.00;99.90;;;;;;5042459;28;20494;-73
2022/12/30 11:45:19;;;;;;;2.10;1.30;;;10.80;99.90;;;;;;5044864;28;20459;-74
2022/12/30 11:48:19;;;;;;;4.43;1.30;;;10.70;99.90;;;;;;5042983;28;20571;-74
2022/12/30 11:51:16;;;;;;;4.83;1.40;;;10.60;99.90;;;;;;5037624;28;20503;-74
2022/12/30 11:54:04;;;;;;;2.90;1.33;;;10.60;99.90;;;;;;5043238;28;20436;-74
2022/12/30 11:56:54;;;;;;;2.30;1.43;;;10.60;99.90;;;;;;5049777;28;20454;-74
2022/12/30 11:59:47;;;;;;;2.37;1.10;;;10.50;99.90;;;;;;5038391;28;20476;-74
2022/12/30 12:02:36;;;;;;;3.20;1.03;;;10.50;99.90;;;;;;5041718;28;20501;-74
2022/12/30 12:05:40;;;;;;;3.93;1.30;;;10.60;99.90;;;;;;5048551;28;20450;-74
2022/12/30 12:08:30;;;;;;;3.00;1.40;;;10.60;99.90;;;;;;5052838;28;20449;-75
2022/12/30 12:11:19;;;;;;;4.67;1.60;;;10.60;99.90;;;;;;5040198;28;20586;-75
2022/12/30 12:14:12;;;;;;;3.20;1.27;;;10.60;99.90;;;;;;5048734;28;20503;-75
2022/12/30 12:17:06;;;;;;;4.57;1.57;;;10.60;99.90;;;;;;5045585;28;20436;-73
2022/12/30 12:19:58;;;;;;;2.90;1.20;;;10.60;99.90;;;;;;5041570;28;20547;-75
2022/12/30 12:22:53;;;;;;;3.77;1.47;;;10.60;99.90;;;;;;5044730;28;20522;-74
2022/12/30 12:25:43;;;;;;;3.13;1.00;;;10.60;99.90;;;;;;5049700;28;20452;-71
2022/12/30 12:28:29;;;;;;;2.00;1.10;;;10.60;99.90;;;;;;5043615;28;20933;-74
2022/12/30 12:31:41;;;;;;;5.47;1.47;;;10.50;99.90;;;;;;5046461;28;20487;-74
2022/12/30 12:34:39;;;;;;;3.40;1.97;;;10.50;99.90;;;;;;5042029;28;20471;-72
2022/12/30 12:37:35;;;;;;;3.57;1.40;;;10.50;99.90;;;;;;5045334;28;20444;-74
2022/12/30 12:40:40;;;;;;;3.30;1.30;;;10.60;99.90;;;;;;5041695;28;20486;-75
2022/12/30 12:43:33;;;;;;;2.80;1.03;;;10.60;99.90;;;;;;5046073;28;20442;-72
2022/12/30 12:46:32;;;;;;;2.97;0.90;;;10.60;99.90;;;;;;5040401;28;20422;-75
2022/12/30 12:49:29;;;;;;;4.63;0.90;;;10.60;99.90;;;;;;5044212;28;20491;-72
2022/12/30 12:52:28;;;;;;;3.93;1.37;;;10.70;99.90;;;;;;5045344;28;20510;-74
2022/12/30 12:55:26;;;;;;;5.20;1.73;;;10.70;99.90;;;;;;5062152;28;20481;-72
2022/12/30 12:58:20;;;;;;;2.33;1.27;;;10.60;99.90;;;;;;5056025;28;20431;-75
2022/12/30 13:01:17;;;;;;;4.03;1.10;;;10.60;99.90;;;;;;5063444;28;20572;-74
2022/12/30 13:04:20;;;;;;;2.60;1.13;;;10.60;99.90;;;;;;5059713;28;20450;-73
2022/12/30 13:07:18;;;;;;;3.17;1.60;;;10.60;99.90;;;;;;5068850;28;20958;-72
2022/12/30 13:10:22;;;;;;;2.10;1.17;;;10.60;99.90;;;;;;5028433;22;20630;-75
2022/12/30 13:13:18;;;;;;;1.30;0.70;;;10.70;99.90;;;;;;4979925;28;20468;-76
2022/12/30 13:16:08;;;;;;;3.17;1.30;;;10.70;99.90;;;;;;4997228;28;20462;-74
2022/12/30 13:18:56;;;;;;;6.43;1.20;;;10.70;99.90;;;;;;4978417;28;20491;-75
2022/12/30 13:21:42;;;;;;;1.60;0.93;;;10.60;99.90;;;;;;4983763;28;20454;-75
2022/12/30 13:24:38;;;;;;;2.13;1.00;;;10.50;99.90;;;;;;4984461;28;20496;-75
2022/12/30 13:27:28;;;;;;;2.80;1.03;;;10.60;99.90;;;;;;4980128;28;20801;-74
2022/12/30 13:30:17;;;;;;;2.07;1.33;;;10.60;99.90;;;;;;4982075;28;20482;-70
2022/12/30 13:33:10;;;;;;;1.97;1.00;;;10.50;99.90;;;;;;4980137;28;20419;-74
2022/12/30 13:36:01;;;;;;;5.60;1.30;;;10.50;99.90;;;;;;4979546;28;20426;-74
2022/12/30 13:38:58;;;;;;;3.40;1.00;;;10.40;99.90;;;;;;4979172;28;20442;-75
2022/12/30 13:41:59;;;;;;;3.77;1.10;;;10.40;99.90;;;;;;4986104;28;20450;-73
2022/12/30 13:44:47;;;;;;;3.40;1.10;;;10.40;99.90;;;;;;4973758;28;20397;-74
2022/12/30 13:47:36;;;;;;;3.97;1.90;;;10.50;99.90;;;;;;4981712;28;20445;-72
2022/12/30 13:50:25;;;;;;;3.70;1.20;;;10.60;99.90;;;;;;4989016;28;20442;-73
2022/12/30 13:53:39;;;;;;;2.47;1.10;;;10.60;99.90;;;;;;4985389;28;21001;-75
2022/12/30 13:56:36;;;;;;;3.80;1.27;;;10.50;99.90;;;;;;4985681;28;22049;-76
2022/12/30 13:59:26;;;;;;;2.13;1.13;;;10.60;99.90;;;;;;4982991;28;20478;-76
2022/12/30 14:02:50;;;;;;;2.10;1.20;;;10.60;99.90;;;;;;4986967;28;20454;-75
2022/12/30 14:06:01;;;;;;;5.73;3.03;;;10.60;99.90;;;;;;4988608;28;20971;-75
2022/12/30 14:08:50;;;;;;;3.40;1.73;;;10.70;99.90;;;;;;4982490;28;20466;-75
2022/12/30 14:11:36;;;;;;;4.03;1.50;;;10.70;99.90;;;;;;4986575;28;20970;-75
2022/12/30 14:14:22;;;;;;;1.70;1.20;;;10.70;99.90;;;;;;4984836;28;20430;-75
2022/12/30 14:17:09;;;;;;;2.90;1.10;;;10.60;99.90;;;;;;4980009;28;20438;-74
2022/12/30 14:20:00;;;;;;;5.90;1.60;;;10.60;99.90;;;;;;4987635;28;20493;-75
2022/12/30 14:23:01;;;;;;;2.40;1.47;;;10.60;99.90;;;;;;4986728;28;20505;-74
2022/12/30 14:25:46;;;;;;;7.93;1.30;;;10.50;99.90;;;;;;4989059;28;20963;-75
2022/12/30 14:28:45;;;;;;;3.10;1.50;;;10.40;99.90;;;;;;4986978;28;20528;-75
2022/12/30 14:31:34;;;;;;;3.50;1.40;;;10.40;99.90;;;;;;4993326;28;20517;-75
2022/12/30 14:34:27;;;;;;;2.13;1.30;;;10.30;99.90;;;;;;4988165;28;20454;-75
2022/12/30 14:37:23;;;;;;;3.13;1.40;;;10.40;99.90;;;;;;4973863;28;20443;-75
2022/12/30 14:40:31;;;;;;;3.00;1.27;;;10.50;99.90;;;;;;4979406;28;20487;-75
2022/12/30 14:43:21;;;;;;;1.77;1.13;;;10.50;99.90;;;;;;4989491;28;20807;-75
2022/12/30 14:46:51;;;;;;;3.57;1.53;;;10.50;99.90;;;;;;4986013;28;20450;-75
2022/12/30 14:49:41;;;;;;;3.50;1.60;;;10.50;99.90;;;;;;4993966;28;20436;-75
2022/12/30 14:52:29;;;;;;;3.30;1.10;;;10.50;99.90;;;;;;4981720;28;20528;-73
2022/12/30 14:55:20;;;;;;;1.80;1.00;;;10.50;99.90;;;;;;4974747;28;20447;-75
2022/12/30 14:58:21;;;;;;;2.27;1.07;;;10.40;99.90;;;;;;4983200;28;20452;-73
2022/12/30 15:01:12;;;;;;;3.60;1.20;;;10.30;99.90;;;;;;4987523;28;20497;-75
2022/12/30 15:04:15;;;;;;;2.27;1.20;;;10.20;99.90;;;;;;4986180;28;20481;-75
2022/12/30 15:07:02;;;;;;;3.83;1.33;;;10.10;99.90;;;;;;4974925;28;21257;-75
2022/12/30 15:09:50;;;;;;;2.30;1.27;;;10.10;99.90;;;;;;4982329;28;20482;-74
2022/12/30 15:12:35;;;;;;;2.97;1.30;;;10.10;99.90;;;;;;4981336;28;20456;-75
2022/12/30 15:15:24;;;;;;;2.60;1.17;;;9.90;99.90;;;;;;4979271;28;20459;-74
2022/12/30 15:18:34;;;;;;;4.67;1.70;;;9.90;99.90;;;;;;4983754;28;21036;-75
2022/12/30 15:21:23;;;;;;;1.93;1.40;;;9.90;99.90;;;;;;4984159;28;20478;-75
2022/12/30 15:24:13;;;;;;;2.00;1.10;;;9.90;99.90;;;;;;4980263;28;20450;-74
2022/12/30 15:27:02;;;;;;;2.83;1.40;;;9.90;99.90;;;;;;4982807;28;20492;-74
2022/12/30 15:29:48;;;;;;;2.60;1.57;;;9.90;99.90;;;;;;4983520;28;20444;-74
2022/12/30 15:32:37;;;;;;;2.60;1.27;;;9.80;99.90;;;;;;4985278;28;20435;-75
2022/12/30 15:35:28;;;;;;;5.50;1.50;;;9.80;99.90;;;;;;4980072;28;20442;-73
2022/12/30 15:38:16;;;;;;;2.23;1.60;;;9.80;99.90;;;;;;4986350;28;20450;-75
2022/12/30 15:41:04;;;;;;;3.03;1.93;;;9.90;99.90;;;;;;4974166;28;20617;-75
2022/12/30 15:43:52;;;;;;;2.67;1.50;;;9.90;99.90;;;;;;4986752;28;20446;-74
2022/12/30 15:46:49;;;;;;;4.10;1.30;;;9.80;99.90;;;;;;4981911;28;20557;-74
2022/12/30 15:49:50;;;;;;;2.73;1.60;;;9.90;99.90;;;;;;4983928;28;20446;-76